Time;durP1;ratioP1;P1;durP2;ratioP2;P2;SDS_P1;SDS_P2;PMS_P1;PMS_P2;Temp;Humidity;BMP_temperature;BMP_pressure;BME280_temperature;BME280_humidity;BME280_pressure;Samples;Min_cycle;Max_cycle;Signal;HPM_P1;HPM_P2
2023/10/07 00:02:46;;;;;;;22.13;7.10;;;;;;;;;;6095915;23;20599;-93
2023/10/07 00:06:00;;;;;;;15.40;6.72;;;;;;;;;;6096077;23;20173;-91
2023/10/07 00:09:10;;;;;;;15.57;7.07;;;;;;;;;;6097575;23;20169;-92
2023/10/07 00:12:19;;;;;;;14.60;6.97;;;;;;;;;;6112742;23;20189;-92
2023/10/07 00:15:28;;;;;;;17.17;6.80;;;;;;;;;;6097296;23;20203;-93
2023/10/07 00:18:34;;;;;;;17.30;6.70;;;;;;;;;;6095066;23;20170;-90
2023/10/07 00:21:58;;;;;;;14.88;7.03;;;;;;;;;;6095736;23;20170;-91
2023/10/07 00:25:06;;;;;;;15.07;6.10;;;;;;;;;;6095286;23;20170;-94
2023/10/07 00:28:19;;;;;;;18.98;6.70;;;;;;;;;;6096475;23;20265;-93
2023/10/07 00:31:28;;;;;;;14.80;6.72;;;;;;;;;;6094140;23;20193;-93
2023/10/07 00:34:38;;;;;;;24.40;6.78;;;;;;;;;;6096954;23;20340;-93
2023/10/07 00:37:44;;;;;;;12.93;6.32;;;;;;;;;;6098891;23;20157;-94
2023/10/07 00:40:54;;;;;;;17.80;7.13;;;;;;;;;;6097191;23;20233;-95
2023/10/07 00:44:15;;;;;;;17.48;6.85;;;;;;;;;;6098232;23;20186;-94
2023/10/07 00:47:21;;;;;;;18.33;7.03;;;;;;;;;;6114605;23;20181;-93
2023/10/07 00:50:27;;;;;;;14.27;6.45;;;;;;;;;;6090534;23;20751;-93
2023/10/07 00:53:44;;;;;;;16.67;6.53;;;;;;;;;;6066820;23;20266;-93
2023/10/07 00:57:06;;;;;;;13.38;6.18;;;;;;;;;;6082344;23;20174;-95
2023/10/07 01:00:34;;;;;;;15.13;6.70;;;;;;;;;;6084634;23;20163;-94
2023/10/07 01:03:48;;;;;;;13.95;6.57;;;;;;;;;;6085562;23;20179;-94
2023/10/07 01:07:02;;;;;;;15.15;7.28;;;;;;;;;;6084953;23;20166;-94
2023/10/07 01:10:13;;;;;;;23.33;7.93;;;;;;;;;;6085141;23;20194;-93
2023/10/07 01:13:29;;;;;;;16.50;7.18;;;;;;;;;;6082721;23;20166;-94
2023/10/07 01:16:44;;;;;;;20.73;7.78;;;;;;;;;;6081105;23;20187;-91
2023/10/07 01:19:53;;;;;;;19.35;8.07;;;;;;;;;;6080792;23;20725;-93
2023/10/07 01:23:04;;;;;;;17.92;7.82;;;;;;;;;;6082155;23;20228;-93
2023/10/07 01:26:16;;;;;;;16.83;7.60;;;;;;;;;;6082585;23;20225;-94
2023/10/07 01:29:21;;;;;;;17.75;7.45;;;;;;;;;;6081821;23;20175;-91
2023/10/07 01:32:31;;;;;;;16.73;6.97;;;;;;;;;;6082456;23;20213;-93
2023/10/07 01:35:57;;;;;;;17.30;7.38;;;;;;;;;;6081901;23;20163;-93
2023/10/07 01:39:06;;;;;;;16.58;6.97;;;;;;;;;;6082819;23;20269;-93
2023/10/07 01:42:22;;;;;;;16.52;7.68;;;;;;;;;;6081469;23;20230;-93
2023/10/07 01:45:34;;;;;;;16.85;7.07;;;;;;;;;;6081880;23;20329;-92
2023/10/07 01:48:49;;;;;;;21.80;7.10;;;;;;;;;;6082486;23;20170;-91
2023/10/07 01:51:55;;;;;;;14.35;6.95;;;;;;;;;;6082263;23;20637;-92
2023/10/07 01:55:08;;;;;;;33.00;6.90;;;;;;;;;;6082740;23;20633;-93
2023/10/07 01:58:14;;;;;;;14.50;6.70;;;;;;;;;;6081590;23;20300;-92
2023/10/07 02:01:21;;;;;;;17.90;6.93;;;;;;;;;;6082214;23;20228;-93
2023/10/07 02:04:27;;;;;;;14.50;7.07;;;;;;;;;;6082655;23;20170;-92
2023/10/07 02:07:36;;;;;;;29.67;7.03;;;;;;;;;;6082552;23;20169;-92
2023/10/07 02:10:45;;;;;;;16.67;6.78;;;;;;;;;;6082778;23;20198;-93
2023/10/07 02:13:51;;;;;;;27.75;7.60;;;;;;;;;;6082191;23;20188;-93
2023/10/07 02:16:59;;;;;;;23.98;6.68;;;;;;;;;;6081345;23;20170;-92
2023/10/07 02:20:22;;;;;;;31.73;6.97;;;;;;;;;;6081493;23;20184;-92
2023/10/07 02:23:37;;;;;;;14.32;6.60;;;;;;;;;;6081943;23;20178;-93
2023/10/07 02:26:44;;;;;;;15.60;6.35;;;;;;;;;;6081366;23;20171;-92
2023/10/07 02:29:57;;;;;;;25.48;6.80;;;;;;;;;;6083116;23;20170;-92
2023/10/07 02:33:02;;;;;;;17.33;7.50;;;;;;;;;;6082779;23;20175;-92
2023/10/07 02:36:10;;;;;;;18.23;7.20;;;;;;;;;;6083190;23;20170;-93
2023/10/07 02:39:23;;;;;;;14.98;6.70;;;;;;;;;;6082320;23;20187;-91
2023/10/07 02:42:31;;;;;;;15.18;7.25;;;;;;;;;;6082906;23;20174;-92
2023/10/07 02:45:42;;;;;;;12.73;6.07;;;;;;;;;;6082672;23;20173;-93
2023/10/07 02:48:48;;;;;;;14.07;6.15;;;;;;;;;;6083802;23;20299;-92
2023/10/07 02:51:56;;;;;;;14.45;5.95;;;;;;;;;;6081336;23;20214;-92
2023/10/07 02:55:27;;;;;;;19.25;7.30;;;;;;;;;;6084984;23;20202;-92
2023/10/07 02:58:36;;;;;;;18.77;7.15;;;;;;;;;;6082742;23;20215;-92
2023/10/07 03:02:12;;;;;;;19.35;7.15;;;;;;;;;;6091115;23;20183;-92
2023/10/07 03:05:14;;;;;;;22.55;7.18;;;;;;;;;;6067085;23;20175;-92
2023/10/07 03:08:20;;;;;;;25.30;7.63;;;;;;;;;;6083483;23;20199;-93
2023/10/07 03:11:40;;;;;;;26.27;7.70;;;;;;;;;;6083978;23;20291;-92
2023/10/07 03:14:47;;;;;;;23.70;6.88;;;;;;;;;;6083127;23;20175;-92
2023/10/07 03:17:52;;;;;;;23.88;7.30;;;;;;;;;;6084042;23;20170;-93
2023/10/07 03:21:10;;;;;;;13.50;6.85;;;;;;;;;;6085068;23;20270;-93
2023/10/07 03:24:28;;;;;;;11.05;5.50;;;;;;;;;;6082194;23;20163;-93
2023/10/07 03:27:39;;;;;;;12.75;5.40;;;;;;;;;;6084249;23;20507;-92
2023/10/07 03:30:51;;;;;;;10.38;5.28;;;;;;;;;;6082443;23;20187;-94
2023/10/07 03:33:58;;;;;;;12.55;5.80;;;;;;;;;;6082563;23;20283;-92
2023/10/07 03:37:15;;;;;;;15.55;6.40;;;;;;;;;;6082968;23;20602;-91
2023/10/07 03:40:28;;;;;;;16.15;6.63;;;;;;;;;;6083043;23;20178;-93
2023/10/07 03:43:34;;;;;;;29.25;6.45;;;;;;;;;;6084851;23;20168;-93
2023/10/07 03:46:41;;;;;;;23.17;6.90;;;;;;;;;;6084217;23;20171;-92
2023/10/07 03:49:52;;;;;;;19.60;6.72;;;;;;;;;;6083607;23;20182;-93
2023/10/07 03:52:59;;;;;;;39.72;7.63;;;;;;;;;;6084864;23;20256;-93
2023/10/07 03:56:08;;;;;;;12.57;6.05;;;;;;;;;;6084899;23;20506;-93
2023/10/07 03:59:15;;;;;;;22.70;6.35;;;;;;;;;;6084993;23;20215;-93
2023/10/07 04:02:35;;;;;;;11.52;6.05;;;;;;;;;;6085877;23;20200;-93
2023/10/07 04:05:45;;;;;;;13.50;6.20;;;;;;;;;;6084526;23;20240;-91
2023/10/07 04:08:53;;;;;;;19.83;6.53;;;;;;;;;;6083821;23;20146;-92
2023/10/07 04:11:59;;;;;;;20.92;6.55;;;;;;;;;;6085064;23;20255;-91
2023/10/07 04:15:04;;;;;;;21.77;6.35;;;;;;;;;;6084827;23;20244;-93
2023/10/07 04:18:16;;;;;;;13.43;6.85;;;;;;;;;;6085185;23;20174;-93
2023/10/07 04:21:23;;;;;;;16.50;7.22;;;;;;;;;;6085049;23;20300;-90
2023/10/07 04:24:28;;;;;;;12.15;6.30;;;;;;;;;;6084204;23;20174;-92
2023/10/07 04:27:41;;;;;;;19.40;6.47;;;;;;;;;;6084762;23;20607;-91
2023/10/07 04:30:53;;;;;;;20.38;6.68;;;;;;;;;;6085622;23;20701;-92
2023/10/07 04:34:02;;;;;;;13.30;6.18;;;;;;;;;;6084680;23;20495;-92
2023/10/07 04:37:14;;;;;;;14.23;6.47;;;;;;;;;;6084114;23;20155;-92
2023/10/07 04:40:53;;;;;;;14.70;5.72;;;;;;;;;;6085795;23;20236;-92
2023/10/07 04:44:20;;;;;;;13.60;5.90;;;;;;;;;;6087646;23;20181;-92
2023/10/07 04:47:35;;;;;;;20.08;6.18;;;;;;;;;;6082789;23;20171;-90
2023/10/07 04:51:02;;;;;;;20.63;6.13;;;;;;;;;;6084563;23;20614;-91
2023/10/07 04:54:07;;;;;;;10.43;5.55;;;;;;;;;;6085135;23;20211;-91
2023/10/07 04:57:17;;;;;;;13.15;5.75;;;;;;;;;;6084406;23;20170;-92
2023/10/07 05:00:30;;;;;;;13.00;6.75;;;;;;;;;;6084338;23;20350;-91
2023/10/07 05:03:36;;;;;;;17.85;6.97;;;;;;;;;;6084788;23;20166;-91
2023/10/07 05:06:44;;;;;;;20.30;7.57;;;;;;;;;;6085239;23;20186;-92
2023/10/07 05:09:50;;;;;;;15.32;6.68;;;;;;;;;;6085636;23;20227;-91
2023/10/07 05:13:06;;;;;;;13.90;7.00;;;;;;;;;;6088169;23;20178;-92
2023/10/07 05:16:10;;;;;;;15.05;6.35;;;;;;;;;;6086785;23;20171;-90
2023/10/07 05:19:22;;;;;;;13.77;6.53;;;;;;;;;;6086270;23;20187;-92
2023/10/07 05:22:30;;;;;;;21.75;7.15;;;;;;;;;;6086507;23;20263;-92
2023/10/07 05:25:38;;;;;;;17.23;6.95;;;;;;;;;;6086018;23;20175;-93
2023/10/07 05:28:44;;;;;;;17.17;6.75;;;;;;;;;;6085100;23;20199;-93
2023/10/07 05:31:50;;;;;;;14.30;6.95;;;;;;;;;;6085218;23;20239;-91
2023/10/07 05:34:57;;;;;;;19.90;6.47;;;;;;;;;;6070131;23;20167;-93
2023/10/07 05:38:09;;;;;;;13.82;6.88;;;;;;;;;;6085880;23;20178;-94
2023/10/07 05:41:16;;;;;;;18.23;7.57;;;;;;;;;;6084604;23;20251;-92
2023/10/07 05:44:22;;;;;;;15.90;6.85;;;;;;;;;;6083821;23;20179;-92
2023/10/07 05:47:30;;;;;;;12.23;7.10;;;;;;;;;;6084908;23;20564;-91
2023/10/07 05:50:36;;;;;;;14.15;6.72;;;;;;;;;;6084745;23;20246;-93
2023/10/07 05:53:55;;;;;;;12.23;6.38;;;;;;;;;;6084771;23;20618;-90
2023/10/07 05:57:01;;;;;;;17.33;6.60;;;;;;;;;;6079249;23;20170;-93
2023/10/07 06:00:12;;;;;;;22.35;6.30;;;;;;;;;;6081837;23;20189;-91
2023/10/07 06:03:18;;;;;;;23.27;7.10;;;;;;;;;;6065517;23;20155;-91
2023/10/07 06:06:23;;;;;;;20.13;6.40;;;;;;;;;;6084697;23;20170;-90
2023/10/07 06:09:30;;;;;;;27.00;6.50;;;;;;;;;;6083779;23;20175;-90
2023/10/07 06:12:35;;;;;;;14.48;6.53;;;;;;;;;;6080761;23;20198;-93
2023/10/07 06:15:40;;;;;;;17.02;5.97;;;;;;;;;;6080564;23;20679;-91
2023/10/07 06:18:45;;;;;;;13.68;5.72;;;;;;;;;;6078335;23;20166;-88
2023/10/07 06:21:51;;;;;;;17.90;6.07;;;;;;;;;;6078711;23;20170;-88
2023/10/07 06:25:00;;;;;;;41.50;6.60;;;;;;;;;;6061988;23;20667;-89
2023/10/07 06:28:06;;;;;;;13.23;5.28;;;;;;;;;;6079620;23;20303;-90
2023/10/07 06:31:13;;;;;;;10.40;4.78;;;;;;;;;;6078239;23;20514;-87
2023/10/07 06:34:25;;;;;;;22.92;6.03;;;;;;;;;;6077131;23;20307;-87
2023/10/07 06:37:30;;;;;;;13.32;5.30;;;;;;;;;;6062920;23;20248;-88
2023/10/07 06:40:36;;;;;;;9.73;5.28;;;;;;;;;;6076940;23;20231;-88
2023/10/07 06:43:42;;;;;;;14.32;5.30;;;;;;;;;;6078073;23;20170;-89
2023/10/07 06:46:48;;;;;;;10.07;5.38;;;;;;;;;;6061606;23;20174;-89
2023/10/07 06:49:56;;;;;;;10.27;5.65;;;;;;;;;;6075706;23;20727;-86
2023/10/07 06:53:01;;;;;;;12.48;6.32;;;;;;;;;;6077594;23;20194;-88
2023/10/07 06:56:08;;;;;;;16.70;6.40;;;;;;;;;;6077064;23;20517;-89
2023/10/07 06:59:16;;;;;;;22.52;7.05;;;;;;;;;;6077922;23;20178;-88
2023/10/07 07:02:34;;;;;;;12.43;7.40;;;;;;;;;;6077987;23;20292;-86
2023/10/07 07:05:40;;;;;;;12.10;6.57;;;;;;;;;;6080510;23;20191;-87
2023/10/07 07:08:45;;;;;;;12.20;6.40;;;;;;;;;;6080320;23;20174;-88
2023/10/07 07:11:55;;;;;;;18.83;6.80;;;;;;;;;;6078778;23;20171;-87
2023/10/07 07:15:04;;;;;;;13.55;7.68;;;;;;;;;;6079533;23;20174;-89
2023/10/07 07:18:16;;;;;;;13.95;7.20;;;;;;;;;;6080990;23;20633;-86
2023/10/07 07:21:31;;;;;;;17.98;7.95;;;;;;;;;;6082665;23;20516;-87
2023/10/07 07:24:35;;;;;;;12.55;7.20;;;;;;;;;;6082180;23;20182;-91
2023/10/07 07:27:48;;;;;;;17.60;8.10;;;;;;;;;;6081664;23;20154;-90
2023/10/07 07:30:57;;;;;;;17.15;7.88;;;;;;;;;;6080315;23;20268;-90
2023/10/07 07:34:13;;;;;;;14.82;7.60;;;;;;;;;;6080334;23;20255;-86
2023/10/07 07:37:19;;;;;;;17.42;6.53;;;;;;;;;;6082250;23;20202;-88
2023/10/07 07:40:40;;;;;;;14.65;7.63;;;;;;;;;;6082130;23;20170;-87
2023/10/07 07:43:48;;;;;;;18.33;9.00;;;;;;;;;;6080776;23;20195;-90
2023/10/07 07:46:54;;;;;;;13.32;7.53;;;;;;;;;;6080651;23;20245;-91
2023/10/07 07:50:06;;;;;;;24.20;8.18;;;;;;;;;;6084260;23;20179;-90
2023/10/07 07:53:12;;;;;;;17.52;8.10;;;;;;;;;;6081909;23;20205;-87
2023/10/07 07:56:18;;;;;;;14.90;8.38;;;;;;;;;;6078779;23;20246;-85
2023/10/07 07:59:25;;;;;;;14.60;7.25;;;;;;;;;;6078471;23;20195;-87
2023/10/07 08:02:30;;;;;;;14.30;7.43;;;;;;;;;;6080157;23;20276;-89
2023/10/07 08:05:39;;;;;;;13.30;7.72;;;;;;;;;;6082342;23;20234;-89
2023/10/07 08:08:45;;;;;;;13.50;6.78;;;;;;;;;;6080480;23;20251;-91
2023/10/07 08:11:50;;;;;;;18.27;7.13;;;;;;;;;;6065523;23;20195;-90
2023/10/07 08:14:58;;;;;;;15.27;7.40;;;;;;;;;;6080291;23;20463;-88
2023/10/07 08:18:06;;;;;;;14.13;7.03;;;;;;;;;;6079292;23;20171;-91
2023/10/07 08:21:13;;;;;;;12.38;7.10;;;;;;;;;;6079854;23;20679;-90
2023/10/07 08:24:19;;;;;;;16.33;7.35;;;;;;;;;;6079984;23;20192;-89
2023/10/07 08:30:48;;;;;;;13.60;7.63;;;;;;;;;;6081490;23;20194;-87
2023/10/07 08:34:09;;;;;;;15.90;7.45;;;;;;;;;;6080343;23;20226;-87
2023/10/07 08:37:15;;;;;;;13.68;6.80;;;;;;;;;;6081640;23;20175;-86
2023/10/07 08:40:28;;;;;;;13.30;7.50;;;;;;;;;;6082185;23;20174;-88
2023/10/07 08:43:37;;;;;;;11.05;6.50;;;;;;;;;;6080676;23;20193;-86
2023/10/07 08:46:48;;;;;;;15.93;7.50;;;;;;;;;;6082500;23;20186;-88
2023/10/07 08:49:56;;;;;;;15.63;6.82;;;;;;;;;;6080480;23;20202;-86
2023/10/07 08:53:07;;;;;;;14.90;7.57;;;;;;;;;;6084277;23;20230;-88
2023/10/07 08:56:13;;;;;;;16.20;8.15;;;;;;;;;;6084460;23;20158;-87
2023/10/07 08:59:22;;;;;;;19.05;9.63;;;;;;;;;;6084439;23;20174;-88
2023/10/07 09:02:30;;;;;;;16.00;8.25;;;;;;;;;;6069511;23;20223;-89
2023/10/07 09:08:56;;;;;;;16.90;7.40;;;;;;;;;;6069364;23;20170;-88
2023/10/07 09:12:08;;;;;;;18.85;8.95;;;;;;;;;;6082153;23;20179;-89
2023/10/07 09:15:20;;;;;;;21.73;9.02;;;;;;;;;;6084733;23;20171;-86
2023/10/07 09:18:31;;;;;;;17.52;8.73;;;;;;;;;;6084881;23;20167;-88
2023/10/07 09:21:37;;;;;;;18.10;8.60;;;;;;;;;;6084190;23;20178;-89
2023/10/07 09:24:45;;;;;;;18.80;9.88;;;;;;;;;;6083731;23;20170;-91
2023/10/07 09:27:59;;;;;;;17.30;9.07;;;;;;;;;;6082858;23;20308;-90
2023/10/07 09:31:06;;;;;;;20.67;8.63;;;;;;;;;;6078964;23;20195;-90
2023/10/07 09:34:29;;;;;;;26.58;9.65;;;;;;;;;;6065332;23;20174;-89
2023/10/07 09:37:35;;;;;;;21.48;8.85;;;;;;;;;;6080335;23;20222;-88
2023/10/07 09:44:21;;;;;;;21.15;8.52;;;;;;;;;;6063777;23;20174;-90
2023/10/07 09:47:27;;;;;;;16.45;8.45;;;;;;;;;;6063161;23;20174;-91
2023/10/07 09:50:35;;;;;;;17.48;8.27;;;;;;;;;;6081523;23;20166;-92
2023/10/07 09:53:43;;;;;;;19.65;8.40;;;;;;;;;;6081752;23;20167;-90
2023/10/07 09:56:59;;;;;;;19.73;8.52;;;;;;;;;;6080554;23;20195;-89
2023/10/07 10:03:46;;;;;;;18.83;8.25;;;;;;;;;;6081188;23;20198;-89
2023/10/07 10:07:12;;;;;;;19.52;8.45;;;;;;;;;;6079299;23;20445;-87
2023/10/07 10:10:17;;;;;;;19.95;7.63;;;;;;;;;;6084650;23;20163;-89
2023/10/07 10:13:51;;;;;;;19.95;8.38;;;;;;;;;;6082385;23;20179;-87
2023/10/07 10:16:57;;;;;;;19.08;7.90;;;;;;;;;;6063438;23;20258;-89
2023/10/07 10:20:13;;;;;;;21.48;8.10;;;;;;;;;;6081489;23;20695;-90
2023/10/07 10:23:20;;;;;;;19.25;8.13;;;;;;;;;;6081982;23;20211;-87
2023/10/07 10:26:27;;;;;;;17.52;7.13;;;;;;;;;;6080785;23;20173;-88
2023/10/07 10:29:36;;;;;;;16.55;7.70;;;;;;;;;;6082143;23;20232;-89
2023/10/07 10:32:44;;;;;;;14.70;7.00;;;;;;;;;;6081112;23;20202;-89
2023/10/07 10:35:51;;;;;;;17.73;6.93;;;;;;;;;;6079335;23;20178;-88
2023/10/07 10:39:00;;;;;;;16.45;7.05;;;;;;;;;;6080970;23;20223;-87
2023/10/07 10:42:09;;;;;;;16.33;7.28;;;;;;;;;;6080012;23;20171;-89
2023/10/07 10:45:19;;;;;;;15.65;6.72;;;;;;;;;;6077440;23;20178;-89
2023/10/07 10:48:29;;;;;;;15.40;6.70;;;;;;;;;;6076420;23;20170;-92
2023/10/07 10:51:35;;;;;;;17.38;6.80;;;;;;;;;;6076170;23;20194;-89
2023/10/07 10:54:41;;;;;;;14.60;7.10;;;;;;;;;;6082689;23;20171;-88
2023/10/07 10:57:50;;;;;;;17.38;6.65;;;;;;;;;;6082222;23;20504;-87
2023/10/07 11:00:55;;;;;;;11.75;5.78;;;;;;;;;;6079492;23;20284;-91
2023/10/07 11:04:01;;;;;;;16.92;6.00;;;;;;;;;;6077312;23;20282;-88
2023/10/07 11:07:07;;;;;;;16.90;5.82;;;;;;;;;;6080083;23;20162;-90
2023/10/07 11:10:20;;;;;;;14.00;6.40;;;;;;;;;;6077925;23;20174;-87
2023/10/07 11:13:26;;;;;;;18.65;5.75;;;;;;;;;;6080880;23;20257;-88
2023/10/07 11:16:32;;;;;;;17.20;6.18;;;;;;;;;;6082548;23;20242;-90
2023/10/07 11:19:44;;;;;;;11.07;5.32;;;;;;;;;;6084854;23;20741;-87
2023/10/07 11:22:50;;;;;;;14.38;5.57;;;;;;;;;;6068545;23;20373;-91
2023/10/07 11:25:57;;;;;;;13.95;5.38;;;;;;;;;;6078290;23;20174;-90
2023/10/07 11:29:13;;;;;;;14.60;6.22;;;;;;;;;;6078235;23;20166;-92
2023/10/07 11:32:18;;;;;;;13.45;5.53;;;;;;;;;;6084442;23;20243;-92
2023/10/07 11:35:27;;;;;;;13.45;4.65;;;;;;;;;;6080471;23;20183;-89
2023/10/07 11:38:33;;;;;;;13.20;5.40;;;;;;;;;;6078835;23;20240;-87
2023/10/07 11:41:40;;;;;;;9.75;4.25;;;;;;;;;;6079854;23;20163;-87
2023/10/07 11:44:49;;;;;;;17.00;5.05;;;;;;;;;;6063624;23;20170;-90
2023/10/07 11:47:56;;;;;;;13.35;4.88;;;;;;;;;;6080046;23;20259;-91
2023/10/07 11:51:03;;;;;;;11.82;4.82;;;;;;;;;;6079719;23;20664;-88
2023/10/07 11:54:09;;;;;;;14.18;5.05;;;;;;;;;;6078613;23;20253;-88
2023/10/07 11:57:18;;;;;;;12.93;5.50;;;;;;;;;;6080293;23;20301;-90
2023/10/07 12:00:29;;;;;;;13.35;4.78;;;;;;;;;;6079232;23;20291;-88
2023/10/07 12:03:34;;;;;;;14.75;4.80;;;;;;;;;;6079437;23;20198;-88
2023/10/07 12:06:39;;;;;;;13.48;4.70;;;;;;;;;;6080329;23;20272;-90
2023/10/07 12:09:46;;;;;;;11.30;4.68;;;;;;;;;;6079727;23;20278;-90
2023/10/07 12:12:53;;;;;;;14.10;5.28;;;;;;;;;;6079528;23;20167;-89
2023/10/07 12:16:00;;;;;;;10.20;4.13;;;;;;;;;;6080333;23;20219;-90
2023/10/07 12:19:05;;;;;;;10.55;4.10;;;;;;;;;;6080187;23;20171;-90
2023/10/07 12:22:13;;;;;;;9.95;4.55;;;;;;;;;;6080848;23;20263;-87
2023/10/07 12:25:18;;;;;;;13.57;4.53;;;;;;;;;;6082630;23;20663;-90
2023/10/07 12:28:26;;;;;;;11.50;5.18;;;;;;;;;;6083941;23;20247;-88
2023/10/07 12:31:32;;;;;;;11.40;5.43;;;;;;;;;;6063041;23;20179;-89
2023/10/07 12:34:37;;;;;;;9.10;3.95;;;;;;;;;;6079458;23;20174;-91
2023/10/07 12:37:46;;;;;;;11.85;4.07;;;;;;;;;;6079117;23;20229;-87
2023/10/07 12:40:51;;;;;;;10.90;4.32;;;;;;;;;;6080306;23;20179;-89
2023/10/07 12:43:59;;;;;;;12.77;4.65;;;;;;;;;;6078350;23;20253;-88
2023/10/07 12:47:08;;;;;;;13.10;4.03;;;;;;;;;;6079494;23;20179;-90
2023/10/07 12:50:23;;;;;;;13.65;4.65;;;;;;;;;;6078882;23;20174;-90
2023/10/07 12:53:29;;;;;;;13.07;4.10;;;;;;;;;;6079467;23;20222;-89
2023/10/07 12:56:34;;;;;;;9.95;4.13;;;;;;;;;;6080708;23;20179;-89
2023/10/07 12:59:42;;;;;;;9.50;4.47;;;;;;;;;;6078922;23;20175;-89
2023/10/07 13:02:47;;;;;;;10.02;4.18;;;;;;;;;;6078832;23;20284;-88
2023/10/07 13:05:54;;;;;;;14.27;6.03;;;;;;;;;;6078409;23;20246;-90
2023/10/07 13:09:03;;;;;;;14.05;4.82;;;;;;;;;;6077756;23;20303;-90
2023/10/07 13:12:15;;;;;;;11.07;4.47;;;;;;;;;;6078052;23;20178;-91
2023/10/07 13:15:30;;;;;;;11.00;4.32;;;;;;;;;;6078095;23;20174;-89
2023/10/07 13:18:56;;;;;;;18.55;4.45;;;;;;;;;;6079737;23;20155;-88
2023/10/07 13:22:01;;;;;;;8.32;3.85;;;;;;;;;;6082932;23;20253;-87
2023/10/07 13:25:09;;;;;;;9.95;4.10;;;;;;;;;;6079178;23;20202;-89
2023/10/07 13:28:15;;;;;;;10.25;4.10;;;;;;;;;;6061410;23;20167;-89
2023/10/07 13:31:21;;;;;;;13.82;4.70;;;;;;;;;;6077004;23;20183;-87
2023/10/07 13:34:28;;;;;;;10.68;4.40;;;;;;;;;;6078925;23;20179;-89
2023/10/07 13:37:34;;;;;;;13.15;4.50;;;;;;;;;;6078284;23;20175;-92
2023/10/07 13:40:38;;;;;;;9.75;4.28;;;;;;;;;;6079077;23;20179;-90
2023/10/07 13:43:44;;;;;;;13.68;4.40;;;;;;;;;;6079209;23;20198;-89
2023/10/07 13:46:51;;;;;;;11.30;4.30;;;;;;;;;;6078481;23;20293;-88
2023/10/07 13:49:57;;;;;;;12.75;5.50;;;;;;;;;;6078665;23;20664;-90
2023/10/07 13:53:12;;;;;;;9.07;4.30;;;;;;;;;;6075934;23;20210;-88
2023/10/07 13:56:23;;;;;;;12.77;4.43;;;;;;;;;;6076893;23;20191;-90
2023/10/07 13:59:28;;;;;;;11.30;4.03;;;;;;;;;;6076707;23;20239;-87
2023/10/07 14:02:36;;;;;;;9.27;4.00;;;;;;;;;;6079476;23;20254;-87
2023/10/07 14:05:48;;;;;;;9.85;3.90;;;;;;;;;;6075663;23;20644;-88
2023/10/07 14:08:53;;;;;;;11.48;4.20;;;;;;;;;;6078023;23;20179;-87
2023/10/07 14:12:00;;;;;;;8.15;3.85;;;;;;;;;;6079192;23;20606;-89
2023/10/07 14:15:05;;;;;;;10.13;4.38;;;;;;;;;;6078814;23;20231;-87
2023/10/07 14:18:13;;;;;;;10.60;4.55;;;;;;;;;;6080148;23;20299;-89
2023/10/07 14:21:25;;;;;;;10.35;3.70;;;;;;;;;;6079979;23;20222;-89
2023/10/07 14:24:31;;;;;;;14.50;4.22;;;;;;;;;;6077848;23;20223;-91
2023/10/07 14:27:36;;;;;;;16.30;5.15;;;;;;;;;;6079393;23;20611;-88
2023/10/07 14:30:41;;;;;;;9.98;4.40;;;;;;;;;;6079182;23;20219;-90
2023/10/07 14:33:48;;;;;;;13.25;4.75;;;;;;;;;;6078944;23;20210;-91
2023/10/07 14:36:54;;;;;;;13.20;5.00;;;;;;;;;;6077695;23;20307;-89
2023/10/07 14:40:00;;;;;;;12.50;4.93;;;;;;;;;;6081157;23;20159;-88
2023/10/07 14:43:05;;;;;;;12.98;5.13;;;;;;;;;;6077530;23;20178;-90
2023/10/07 14:46:11;;;;;;;12.93;4.45;;;;;;;;;;6079403;23;20298;-89
2023/10/07 14:49:18;;;;;;;11.45;4.43;;;;;;;;;;6063202;23;20182;-88
2023/10/07 14:52:24;;;;;;;10.02;4.28;;;;;;;;;;6079968;23;20594;-90
2023/10/07 14:55:34;;;;;;;13.32;4.35;;;;;;;;;;6080311;23;20170;-91
2023/10/07 14:58:40;;;;;;;11.90;4.53;;;;;;;;;;6079048;23;20167;-89
2023/10/07 15:01:45;;;;;;;8.43;3.55;;;;;;;;;;6061690;23;20191;-90
2023/10/07 15:04:53;;;;;;;9.95;4.25;;;;;;;;;;6078247;23;20278;-89
2023/10/07 15:08:00;;;;;;;10.13;4.57;;;;;;;;;;6079328;23;20179;-91
2023/10/07 15:11:05;;;;;;;12.93;4.72;;;;;;;;;;6078426;23;20174;-88
2023/10/07 15:14:11;;;;;;;13.50;4.70;;;;;;;;;;6078933;23;20170;-88
2023/10/07 15:17:17;;;;;;;10.88;4.47;;;;;;;;;;6062845;23;20287;-90
2023/10/07 15:20:24;;;;;;;16.60;5.13;;;;;;;;;;6079926;23;20179;-90
2023/10/07 15:23:29;;;;;;;12.57;4.78;;;;;;;;;;6079211;23;20174;-90
2023/10/07 15:26:35;;;;;;;14.35;4.85;;;;;;;;;;6079093;23;20175;-89
2023/10/07 15:29:40;;;;;;;12.88;4.57;;;;;;;;;;6078710;23;20170;-91
2023/10/07 15:32:46;;;;;;;13.63;4.60;;;;;;;;;;6063463;23;20528;-91
2023/10/07 15:35:53;;;;;;;12.32;4.72;;;;;;;;;;6081627;23;20167;-91
2023/10/07 15:38:58;;;;;;;11.43;4.80;;;;;;;;;;6080805;23;20238;-89
2023/10/07 15:42:08;;;;;;;14.00;4.65;;;;;;;;;;6078696;23;20175;-89
2023/10/07 15:45:14;;;;;;;11.45;5.00;;;;;;;;;;6080427;23;20194;-91
2023/10/07 15:48:22;;;;;;;15.05;5.28;;;;;;;;;;6079837;23;20158;-88
2023/10/07 15:51:29;;;;;;;14.10;5.28;;;;;;;;;;6080268;23;20325;-90
2023/10/07 15:54:34;;;;;;;13.57;5.30;;;;;;;;;;6081409;23;20170;-90
2023/10/07 15:57:44;;;;;;;12.27;5.15;;;;;;;;;;6082543;23;20174;-89
2023/10/07 16:00:53;;;;;;;10.48;4.28;;;;;;;;;;6092944;23;20158;-88
2023/10/07 16:03:58;;;;;;;9.90;4.68;;;;;;;;;;6090909;23;20243;-88
2023/10/07 16:07:07;;;;;;;14.15;4.53;;;;;;;;;;6073258;23;20177;-89
2023/10/07 16:10:15;;;;;;;14.52;4.78;;;;;;;;;;6093108;23;20151;-89
2023/10/07 16:13:21;;;;;;;16.23;6.10;;;;;;;;;;6089407;23;20627;-88
2023/10/07 16:16:26;;;;;;;12.02;4.55;;;;;;;;;;6066821;23;20170;-90
2023/10/07 16:19:39;;;;;;;13.43;4.90;;;;;;;;;;6082301;23;20200;-90
2023/10/07 16:22:46;;;;;;;12.93;4.97;;;;;;;;;;6087402;23;20615;-91
2023/10/07 16:25:55;;;;;;;9.95;4.55;;;;;;;;;;6083941;23;20214;-90
2023/10/07 16:29:00;;;;;;;14.65;5.35;;;;;;;;;;6085014;23;20187;-89
2023/10/07 16:32:06;;;;;;;16.38;5.65;;;;;;;;;;6083430;23;20342;-90
2023/10/07 16:35:11;;;;;;;15.90;5.40;;;;;;;;;;6083942;23;20186;-89
2023/10/07 16:38:20;;;;;;;17.17;4.95;;;;;;;;;;6083281;23;20162;-89
2023/10/07 16:41:26;;;;;;;13.65;4.53;;;;;;;;;;6087017;23;20178;-89
2023/10/07 16:44:38;;;;;;;15.95;5.22;;;;;;;;;;6087637;23;20202;-91
2023/10/07 16:47:43;;;;;;;13.73;5.38;;;;;;;;;;6087011;23;20199;-92
2023/10/07 16:50:54;;;;;;;15.07;6.00;;;;;;;;;;6089029;23;20199;-90
2023/10/07 16:54:01;;;;;;;9.18;3.67;;;;;;;;;;6088174;23;20174;-89
2023/10/07 16:57:11;;;;;;;19.80;4.20;;;;;;;;;;6071181;23;20177;-90
2023/10/07 17:00:19;;;;;;;10.77;4.28;;;;;;;;;;6086820;23;20186;-91
2023/10/07 17:03:26;;;;;;;18.08;4.35;;;;;;;;;;6052810;23;20185;-89
2023/10/07 17:06:45;;;;;;;12.23;3.78;;;;;;;;;;6070085;23;20207;-90
2023/10/07 17:10:10;;;;;;;15.70;6.43;;;;;;;;;;6087277;23;20193;-91
2023/10/07 17:13:20;;;;;;;18.77;8.00;;;;;;;;;;6087269;23;20215;-91
2023/10/07 17:16:27;;;;;;;13.93;5.93;;;;;;;;;;6087357;23;20171;-89
2023/10/07 17:19:36;;;;;;;14.23;5.50;;;;;;;;;;6070957;23;20178;-89
2023/10/07 17:22:42;;;;;;;15.07;5.47;;;;;;;;;;6088936;23;20167;-90
2023/10/07 17:25:50;;;;;;;11.95;4.35;;;;;;;;;;6088458;23;20215;-89
2023/10/07 17:28:58;;;;;;;27.05;13.63;;;;;;;;;;6086829;23;20166;-90
2023/10/07 17:32:13;;;;;;;15.82;5.78;;;;;;;;;;6088418;23;20548;-89
2023/10/07 22:00:56;;;;;;;17.55;7.45;;;;;;;;;;6056039;23;20226;-92
2023/10/07 22:04:02;;;;;;;114.07;50.05;;;;;;;;;;6080192;23;20174;-92
2023/10/07 22:07:07;;;;;;;14.18;6.25;;;;;;;;;;6113656;23;20257;-92
2023/10/07 22:10:13;;;;;;;33.45;15.30;;;;;;;;;;6093207;23;20511;-92
2023/10/07 22:13:22;;;;;;;18.08;5.30;;;;;;;;;;6110117;23;20544;-91
2023/10/07 22:16:28;;;;;;;16.33;8.70;;;;;;;;;;6094829;23;20173;-92
2023/10/07 22:19:34;;;;;;;24.88;13.88;;;;;;;;;;6110223;23;20222;-92
2023/10/07 22:22:42;;;;;;;16.30;7.45;;;;;;;;;;6092274;23;20177;-93
2023/10/07 22:25:50;;;;;;;29.48;15.02;;;;;;;;;;6092521;23;20269;-92
2023/10/07 22:28:55;;;;;;;17.85;7.15;;;;;;;;;;6092480;23;20491;-92
2023/10/07 22:32:04;;;;;;;16.00;5.80;;;;;;;;;;6092664;23;20227;-90
2023/10/07 22:35:12;;;;;;;12.43;4.70;;;;;;;;;;6093743;23;20174;-92
2023/10/07 22:38:18;;;;;;;11.93;4.45;;;;;;;;;;6093516;23;20170;-92
2023/10/07 22:41:37;;;;;;;9.32;4.22;;;;;;;;;;6097082;23;20174;-91
2023/10/07 22:44:45;;;;;;;12.10;5.43;;;;;;;;;;6093908;23;20202;-92
2023/10/07 22:47:54;;;;;;;12.18;5.28;;;;;;;;;;6093226;23;20178;-93
2023/10/07 22:51:08;;;;;;;16.42;8.60;;;;;;;;;;6092621;23;20174;-92
2023/10/07 22:54:30;;;;;;;13.98;7.30;;;;;;;;;;6091821;23;20163;-92
2023/10/07 22:57:35;;;;;;;11.05;5.10;;;;;;;;;;6092863;23;20228;-91
2023/10/07 23:00:44;;;;;;;19.75;8.13;;;;;;;;;;6109636;23;20268;-92
2023/10/07 23:03:57;;;;;;;14.15;7.95;;;;;;;;;;6091737;23;20165;-92
2023/10/07 23:07:12;;;;;;;12.25;5.50;;;;;;;;;;6093230;23;20273;-92
2023/10/07 23:10:25;;;;;;;11.15;5.05;;;;;;;;;;6092265;23;20179;-92
2023/10/07 23:13:33;;;;;;;13.43;5.35;;;;;;;;;;6093423;23;20199;-92
2023/10/07 23:16:39;;;;;;;11.02;4.82;;;;;;;;;;6092900;23;20242;-90
2023/10/07 23:19:47;;;;;;;10.68;5.20;;;;;;;;;;6109531;23;20182;-92